Decoded Metar for UBBB (BAKU in AZERBAIJAN) (IATA:BAK) | Meteo·Mobile Aviation Weather
aviador You're here:

UBBB Decoded Metar

BAKU in AZERBAIJAN
Report Time2019-04-19 22:00:00
UTC Time2019-04-19 22:15:22
Flight Rules vfr VFR
Wind360° at 14 kt
W.Decomp.*RWY 36: 14.0 kt HW 1 kt LCW
RWY 34: 13.5 kt HW 3.9 kt RCW
Visibility9999 m
Phenomena:N/A
Clouds:Scattered 021 Hf
Overcast 100 Hf
Expected CloudBase > 1,600 ft AGL from Temp-Dew spread
Ceiling10,000 ft
Temp06°C (ISA -9)
Dew Point02°C (76% RH)
AAT-0.7°C
QNH1018 hPa
Density Alt-1,184 ft
Elevation-20 ft
Report Wrong Elevation
Raw Report
METAR UBBB 192200Z 36014KT 9999 SCT021 OVC100 06/02 Q1018 R34/190065
R35/CLRD// NOSIG=

Extra information for UBBB:More info

Metar Taf Metar & Taf Last 4 Metars F.Rules Stats Wind Profile Meteogram Temp Stats Airport Information Weather charts Add Link Nearby VenuesMetar ALERT Operation Metar Decoded Social comments